sensor_id;sensor_type;location;lat;lon;timestamp;P1;durP1;ratioP1;P2;durP2;ratioP2
39620;SDS011;25309;48.686;9.170;2023-06-14T00:01:34;4.33;;;3.73;;
39620;SDS011;25309;48.686;9.170;2023-06-14T00:04:03;5.00;;;3.77;;
39620;SDS011;25309;48.686;9.170;2023-06-14T00:06:31;4.47;;;3.80;;
39620;SDS011;25309;48.686;9.170;2023-06-14T00:09:00;5.83;;;3.77;;
39620;SDS011;25309;48.686;9.170;2023-06-14T00:11:27;5.97;;;3.63;;
39620;SDS011;25309;48.686;9.170;2023-06-14T00:13:54;5.30;;;3.87;;
39620;SDS011;25309;48.686;9.170;2023-06-14T00:16:21;5.57;;;3.90;;
39620;SDS011;25309;48.686;9.170;2023-06-14T00:18:49;4.23;;;3.67;;
39620;SDS011;25309;48.686;9.170;2023-06-14T00:21:19;5.40;;;3.67;;
39620;SDS011;25309;48.686;9.170;2023-06-14T00:23:46;5.50;;;3.90;;
39620;SDS011;25309;48.686;9.170;2023-06-14T00:26:13;5.03;;;3.90;;
39620;SDS011;25309;48.686;9.170;2023-06-14T00:28:42;5.30;;;3.67;;
39620;SDS011;25309;48.686;9.170;2023-06-14T00:31:08;5.27;;;4.10;;
39620;SDS011;25309;48.686;9.170;2023-06-14T00:33:36;4.90;;;3.63;;
39620;SDS011;25309;48.686;9.170;2023-06-14T00:36:04;5.60;;;3.60;;
39620;SDS011;25309;48.686;9.170;2023-06-14T00:38:32;5.03;;;3.80;;
39620;SDS011;25309;48.686;9.170;2023-06-14T00:41:00;4.73;;;3.40;;
39620;SDS011;25309;48.686;9.170;2023-06-14T00:43:27;4.47;;;3.90;;
39620;SDS011;25309;48.686;9.170;2023-06-14T00:45:54;4.67;;;3.70;;
39620;SDS011;25309;48.686;9.170;2023-06-14T00:48:21;4.67;;;3.80;;
39620;SDS011;25309;48.686;9.170;2023-06-14T00:50:49;5.27;;;3.80;;
39620;SDS011;25309;48.686;9.170;2023-06-14T00:53:19;6.67;;;4.07;;
39620;SDS011;25309;48.686;9.170;2023-06-14T00:55:51;4.00;;;3.43;;
39620;SDS011;25309;48.686;9.170;2023-06-14T00:58:18;4.50;;;3.60;;
39620;SDS011;25309;48.686;9.170;2023-06-14T01:00:48;5.40;;;3.80;;
39620;SDS011;25309;48.686;9.170;2023-06-14T01:03:15;4.77;;;3.80;;
39620;SDS011;25309;48.686;9.170;2023-06-14T01:05:49;7.87;;;4.03;;
39620;SDS011;25309;48.686;9.170;2023-06-14T01:08:22;4.93;;;3.73;;
39620;SDS011;25309;48.686;9.170;2023-06-14T01:10:59;5.47;;;3.83;;
39620;SDS011;25309;48.686;9.170;2023-06-14T01:13:32;4.87;;;3.73;;
39620;SDS011;25309;48.686;9.170;2023-06-14T01:16:01;4.53;;;3.80;;
39620;SDS011;25309;48.686;9.170;2023-06-14T01:18:29;5.43;;;3.73;;
39620;SDS011;25309;48.686;9.170;2023-06-14T01:20:56;5.90;;;3.50;;
39620;SDS011;25309;48.686;9.170;2023-06-14T01:23:25;4.57;;;3.50;;
39620;SDS011;25309;48.686;9.170;2023-06-14T01:25:58;4.83;;;3.90;;
39620;SDS011;25309;48.686;9.170;2023-06-14T01:28:30;7.57;;;4.13;;
39620;SDS011;25309;48.686;9.170;2023-06-14T01:31:00;4.40;;;3.50;;
39620;SDS011;25309;48.686;9.170;2023-06-14T01:33:32;5.53;;;3.90;;
39620;SDS011;25309;48.686;9.170;2023-06-14T01:35:59;4.93;;;3.43;;
39620;SDS011;25309;48.686;9.170;2023-06-14T01:38:30;4.70;;;3.93;;
39620;SDS011;25309;48.686;9.170;2023-06-14T01:40:58;5.53;;;3.77;;
39620;SDS011;25309;48.686;9.170;2023-06-14T01:43:26;4.50;;;3.97;;
39620;SDS011;25309;48.686;9.170;2023-06-14T01:45:56;5.60;;;4.13;;
39620;SDS011;25309;48.686;9.170;2023-06-14T01:48:26;5.40;;;3.93;;
39620;SDS011;25309;48.686;9.170;2023-06-14T01:50:53;4.70;;;3.60;;
39620;SDS011;25309;48.686;9.170;2023-06-14T01:53:20;4.93;;;3.43;;
39620;SDS011;25309;48.686;9.170;2023-06-14T01:55:48;5.67;;;3.93;;
39620;SDS011;25309;48.686;9.170;2023-06-14T01:58:15;4.63;;;3.93;;
39620;SDS011;25309;48.686;9.170;2023-06-14T02:00:43;5.43;;;4.03;;
39620;SDS011;25309;48.686;9.170;2023-06-14T02:03:10;4.40;;;3.60;;
39620;SDS011;25309;48.686;9.170;2023-06-14T02:05:38;5.37;;;3.80;;
39620;SDS011;25309;48.686;9.170;2023-06-14T02:08:06;5.33;;;3.90;;
39620;SDS011;25309;48.686;9.170;2023-06-14T02:10:33;4.67;;;4.00;;
39620;SDS011;25309;48.686;9.170;2023-06-14T02:13:03;6.10;;;4.33;;
39620;SDS011;25309;48.686;9.170;2023-06-14T02:15:30;5.03;;;4.03;;
39620;SDS011;25309;48.686;9.170;2023-06-14T02:18:01;8.03;;;4.13;;
39620;SDS011;25309;48.686;9.170;2023-06-14T02:20:28;4.93;;;4.13;;
39620;SDS011;25309;48.686;9.170;2023-06-14T02:22:56;5.57;;;3.97;;
39620;SDS011;25309;48.686;9.170;2023-06-14T02:25:23;3.97;;;3.57;;
39620;SDS011;25309;48.686;9.170;2023-06-14T02:27:50;6.10;;;4.17;;
39620;SDS011;25309;48.686;9.170;2023-06-14T02:30:18;6.43;;;4.20;;
39620;SDS011;25309;48.686;9.170;2023-06-14T02:32:46;5.33;;;4.00;;
39620;SDS011;25309;48.686;9.170;2023-06-14T02:35:14;5.17;;;4.37;;
39620;SDS011;25309;48.686;9.170;2023-06-14T02:37:41;6.43;;;4.50;;
39620;SDS011;25309;48.686;9.170;2023-06-14T02:40:09;4.83;;;4.07;;
39620;SDS011;25309;48.686;9.170;2023-06-14T02:42:36;6.67;;;4.50;;
39620;SDS011;25309;48.686;9.170;2023-06-14T02:45:04;5.83;;;4.30;;
39620;SDS011;25309;48.686;9.170;2023-06-14T02:47:33;5.00;;;3.93;;
39620;SDS011;25309;48.686;9.170;2023-06-14T02:50:00;5.30;;;3.80;;
39620;SDS011;25309;48.686;9.170;2023-06-14T02:52:27;8.23;;;4.47;;
39620;SDS011;25309;48.686;9.170;2023-06-14T02:54:54;5.30;;;4.37;;
39620;SDS011;25309;48.686;9.170;2023-06-14T02:57:22;5.27;;;4.03;;
39620;SDS011;25309;48.686;9.170;2023-06-14T02:59:50;5.27;;;4.20;;
39620;SDS011;25309;48.686;9.170;2023-06-14T03:02:16;5.10;;;4.23;;
39620;SDS011;25309;48.686;9.170;2023-06-14T03:04:45;5.50;;;4.50;;
39620;SDS011;25309;48.686;9.170;2023-06-14T03:07:16;5.20;;;3.80;;
39620;SDS011;25309;48.686;9.170;2023-06-14T03:09:48;6.07;;;4.20;;
39620;SDS011;25309;48.686;9.170;2023-06-14T03:12:16;6.17;;;4.10;;
39620;SDS011;25309;48.686;9.170;2023-06-14T03:14:44;4.77;;;3.90;;
39620;SDS011;25309;48.686;9.170;2023-06-14T03:17:14;4.93;;;4.20;;
39620;SDS011;25309;48.686;9.170;2023-06-14T03:19:44;6.57;;;4.20;;
39620;SDS011;25309;48.686;9.170;2023-06-14T03:22:14;5.73;;;4.50;;
39620;SDS011;25309;48.686;9.170;2023-06-14T03:24:41;4.60;;;3.80;;
39620;SDS011;25309;48.686;9.170;2023-06-14T03:27:11;6.27;;;4.20;;
39620;SDS011;25309;48.686;9.170;2023-06-14T03:29:41;5.97;;;4.07;;
39620;SDS011;25309;48.686;9.170;2023-06-14T03:32:09;5.77;;;4.23;;
39620;SDS011;25309;48.686;9.170;2023-06-14T03:34:38;5.27;;;3.90;;
39620;SDS011;25309;48.686;9.170;2023-06-14T03:37:09;7.63;;;4.43;;
39620;SDS011;25309;48.686;9.170;2023-06-14T03:39:37;7.40;;;4.60;;
39620;SDS011;25309;48.686;9.170;2023-06-14T03:42:04;5.00;;;4.17;;
39620;SDS011;25309;48.686;9.170;2023-06-14T03:44:32;5.37;;;4.37;;
39620;SDS011;25309;48.686;9.170;2023-06-14T03:46:59;5.60;;;4.33;;
39620;SDS011;25309;48.686;9.170;2023-06-14T03:49:28;5.63;;;4.20;;
39620;SDS011;25309;48.686;9.170;2023-06-14T03:51:54;4.93;;;3.83;;
39620;SDS011;25309;48.686;9.170;2023-06-14T03:54:24;6.70;;;4.17;;
39620;SDS011;25309;48.686;9.170;2023-06-14T03:56:55;5.30;;;4.30;;
39620;SDS011;25309;48.686;9.170;2023-06-14T03:59:23;6.47;;;4.30;;
39620;SDS011;25309;48.686;9.170;2023-06-14T04:01:50;6.00;;;4.10;;
39620;SDS011;25309;48.686;9.170;2023-06-14T04:04:17;8.63;;;4.50;;
39620;SDS011;25309;48.686;9.170;2023-06-14T04:06:44;8.27;;;4.47;;
39620;SDS011;25309;48.686;9.170;2023-06-14T04:09:14;5.57;;;4.33;;
39620;SDS011;25309;48.686;9.170;2023-06-14T04:11:43;6.80;;;4.40;;
39620;SDS011;25309;48.686;9.170;2023-06-14T04:14:09;6.43;;;4.73;;
39620;SDS011;25309;48.686;9.170;2023-06-14T04:16:37;5.50;;;4.20;;
39620;SDS011;25309;48.686;9.170;2023-06-14T04:19:04;6.47;;;4.23;;
39620;SDS011;25309;48.686;9.170;2023-06-14T04:21:31;6.53;;;4.20;;
39620;SDS011;25309;48.686;9.170;2023-06-14T04:24:02;5.93;;;4.17;;
39620;SDS011;25309;48.686;9.170;2023-06-14T04:26:32;5.37;;;3.93;;
39620;SDS011;25309;48.686;9.170;2023-06-14T04:29:01;7.70;;;4.43;;
39620;SDS011;25309;48.686;9.170;2023-06-14T04:31:32;6.67;;;4.40;;
39620;SDS011;25309;48.686;9.170;2023-06-14T04:34:01;6.50;;;4.53;;
39620;SDS011;25309;48.686;9.170;2023-06-14T04:36:32;6.57;;;4.30;;
39620;SDS011;25309;48.686;9.170;2023-06-14T04:39:00;5.80;;;4.17;;
39620;SDS011;25309;48.686;9.170;2023-06-14T04:41:30;5.77;;;4.13;;
39620;SDS011;25309;48.686;9.170;2023-06-14T04:43:59;6.20;;;4.53;;
39620;SDS011;25309;48.686;9.170;2023-06-14T04:46:32;6.37;;;4.30;;
39620;SDS011;25309;48.686;9.170;2023-06-14T04:49:15;5.37;;;4.20;;
39620;SDS011;25309;48.686;9.170;2023-06-14T04:51:44;7.40;;;4.47;;
39620;SDS011;25309;48.686;9.170;2023-06-14T04:54:12;5.27;;;4.27;;
39620;SDS011;25309;48.686;9.170;2023-06-14T04:56:41;7.60;;;4.50;;
39620;SDS011;25309;48.686;9.170;2023-06-14T04:59:11;5.50;;;4.73;;
39620;SDS011;25309;48.686;9.170;2023-06-14T05:01:40;5.33;;;4.17;;
39620;SDS011;25309;48.686;9.170;2023-06-14T05:04:07;8.50;;;4.70;;
39620;SDS011;25309;48.686;9.170;2023-06-14T05:06:34;7.03;;;4.67;;
39620;SDS011;25309;48.686;9.170;2023-06-14T05:09:02;5.67;;;4.20;;
39620;SDS011;25309;48.686;9.170;2023-06-14T05:11:29;5.33;;;4.20;;
39620;SDS011;25309;48.686;9.170;2023-06-14T05:13:56;5.20;;;4.10;;
39620;SDS011;25309;48.686;9.170;2023-06-14T05:16:26;6.00;;;4.23;;
39620;SDS011;25309;48.686;9.170;2023-06-14T05:18:55;6.03;;;4.40;;
39620;SDS011;25309;48.686;9.170;2023-06-14T05:21:22;6.30;;;4.10;;
39620;SDS011;25309;48.686;9.170;2023-06-14T05:23:49;6.33;;;4.03;;
39620;SDS011;25309;48.686;9.170;2023-06-14T05:26:17;8.03;;;4.27;;
39620;SDS011;25309;48.686;9.170;2023-06-14T05:28:45;5.73;;;4.07;;
39620;SDS011;25309;48.686;9.170;2023-06-14T05:31:12;6.43;;;4.00;;
39620;SDS011;25309;48.686;9.170;2023-06-14T05:33:40;5.17;;;3.90;;
39620;SDS011;25309;48.686;9.170;2023-06-14T05:36:07;7.93;;;3.90;;
39620;SDS011;25309;48.686;9.170;2023-06-14T05:38:34;6.97;;;4.10;;
39620;SDS011;25309;48.686;9.170;2023-06-14T05:41:01;6.57;;;3.77;;
39620;SDS011;25309;48.686;9.170;2023-06-14T05:43:28;5.17;;;3.73;;
39620;SDS011;25309;48.686;9.170;2023-06-14T05:45:55;5.97;;;4.03;;
39620;SDS011;25309;48.686;9.170;2023-06-14T05:48:22;5.37;;;3.90;;
39620;SDS011;25309;48.686;9.170;2023-06-14T05:50:51;7.47;;;4.50;;
39620;SDS011;25309;48.686;9.170;2023-06-14T05:53:18;8.17;;;3.80;;
39620;SDS011;25309;48.686;9.170;2023-06-14T05:55:45;8.30;;;4.00;;
39620;SDS011;25309;48.686;9.170;2023-06-14T05:58:12;7.07;;;4.10;;
39620;SDS011;25309;48.686;9.170;2023-06-14T06:00:39;6.53;;;3.50;;
39620;SDS011;25309;48.686;9.170;2023-06-14T06:03:06;8.47;;;3.97;;
39620;SDS011;25309;48.686;9.170;2023-06-14T06:05:35;6.00;;;3.97;;
39620;SDS011;25309;48.686;9.170;2023-06-14T06:08:04;6.53;;;3.97;;
39620;SDS011;25309;48.686;9.170;2023-06-14T06:10:31;6.63;;;4.03;;
39620;SDS011;25309;48.686;9.170;2023-06-14T06:12:58;7.50;;;3.90;;
39620;SDS011;25309;48.686;9.170;2023-06-14T06:15:25;6.10;;;3.97;;
39620;SDS011;25309;48.686;9.170;2023-06-14T06:17:52;5.90;;;3.93;;
39620;SDS011;25309;48.686;9.170;2023-06-14T06:20:22;5.53;;;3.80;;
39620;SDS011;25309;48.686;9.170;2023-06-14T06:22:55;5.13;;;3.80;;
39620;SDS011;25309;48.686;9.170;2023-06-14T06:25:23;5.90;;;3.70;;
39620;SDS011;25309;48.686;9.170;2023-06-14T06:27:52;4.20;;;3.70;;
39620;SDS011;25309;48.686;9.170;2023-06-14T06:30:19;5.20;;;3.60;;
39620;SDS011;25309;48.686;9.170;2023-06-14T06:32:46;5.40;;;3.70;;
39620;SDS011;25309;48.686;9.170;2023-06-14T06:35:14;7.00;;;3.90;;
39620;SDS011;25309;48.686;9.170;2023-06-14T06:37:41;6.23;;;3.83;;
39620;SDS011;25309;48.686;9.170;2023-06-14T06:40:09;8.37;;;4.03;;
39620;SDS011;25309;48.686;9.170;2023-06-14T06:42:38;6.63;;;4.03;;
39620;SDS011;25309;48.686;9.170;2023-06-14T06:45:05;4.47;;;3.90;;
39620;SDS011;25309;48.686;9.170;2023-06-14T06:47:32;6.23;;;4.03;;
39620;SDS011;25309;48.686;9.170;2023-06-14T06:49:59;6.57;;;3.57;;
39620;SDS011;25309;48.686;9.170;2023-06-14T06:52:26;6.70;;;4.07;;
39620;SDS011;25309;48.686;9.170;2023-06-14T06:54:53;5.93;;;3.53;;
39620;SDS011;25309;48.686;9.170;2023-06-14T06:57:22;6.80;;;4.10;;
39620;SDS011;25309;48.686;9.170;2023-06-14T06:59:50;6.17;;;4.43;;
39620;SDS011;25309;48.686;9.170;2023-06-14T07:02:17;6.43;;;4.27;;
39620;SDS011;25309;48.686;9.170;2023-06-14T07:04:45;6.57;;;4.17;;
39620;SDS011;25309;48.686;9.170;2023-06-14T07:07:12;8.03;;;4.53;;
39620;SDS011;25309;48.686;9.170;2023-06-14T07:09:39;8.83;;;4.40;;
39620;SDS011;25309;48.686;9.170;2023-06-14T07:12:07;7.17;;;4.50;;
39620;SDS011;25309;48.686;9.170;2023-06-14T07:14:35;9.27;;;4.70;;
39620;SDS011;25309;48.686;9.170;2023-06-14T07:17:03;7.27;;;4.07;;
39620;SDS011;25309;48.686;9.170;2023-06-14T07:19:31;5.73;;;4.10;;
39620;SDS011;25309;48.686;9.170;2023-06-14T07:21:59;9.50;;;4.17;;
39620;SDS011;25309;48.686;9.170;2023-06-14T07:24:26;6.07;;;3.90;;
39620;SDS011;25309;48.686;9.170;2023-06-14T07:26:55;6.70;;;4.30;;
39620;SDS011;25309;48.686;9.170;2023-06-14T07:29:22;5.17;;;4.20;;
39620;SDS011;25309;48.686;9.170;2023-06-14T07:31:49;6.93;;;4.03;;
39620;SDS011;25309;48.686;9.170;2023-06-14T07:34:18;6.57;;;4.17;;
39620;SDS011;25309;48.686;9.170;2023-06-14T07:36:45;5.17;;;3.80;;
39620;SDS011;25309;48.686;9.170;2023-06-14T07:39:12;4.90;;;3.83;;
39620;SDS011;25309;48.686;9.170;2023-06-14T07:41:40;7.13;;;4.10;;
39620;SDS011;25309;48.686;9.170;2023-06-14T07:44:06;6.13;;;4.30;;
39620;SDS011;25309;48.686;9.170;2023-06-14T07:46:33;7.37;;;4.23;;
39620;SDS011;25309;48.686;9.170;2023-06-14T07:49:01;6.87;;;4.37;;
39620;SDS011;25309;48.686;9.170;2023-06-14T07:51:29;5.57;;;4.33;;
39620;SDS011;25309;48.686;9.170;2023-06-14T07:53:56;8.00;;;4.13;;
39620;SDS011;25309;48.686;9.170;2023-06-14T07:56:27;4.90;;;4.17;;
39620;SDS011;25309;48.686;9.170;2023-06-14T07:58:54;4.77;;;4.07;;
39620;SDS011;25309;48.686;9.170;2023-06-14T08:01:21;5.90;;;3.73;;
39620;SDS011;25309;48.686;9.170;2023-06-14T08:03:50;7.03;;;4.23;;
39620;SDS011;25309;48.686;9.170;2023-06-14T08:06:17;5.10;;;4.20;;
39620;SDS011;25309;48.686;9.170;2023-06-14T08:08:46;6.37;;;4.00;;
39620;SDS011;25309;48.686;9.170;2023-06-14T08:11:12;5.23;;;3.70;;
39620;SDS011;25309;48.686;9.170;2023-06-14T08:13:39;6.43;;;4.17;;
39620;SDS011;25309;48.686;9.170;2023-06-14T08:16:06;7.50;;;3.80;;
39620;SDS011;25309;48.686;9.170;2023-06-14T08:18:33;4.77;;;3.90;;
39620;SDS011;25309;48.686;9.170;2023-06-14T08:21:00;7.03;;;4.23;;
39620;SDS011;25309;48.686;9.170;2023-06-14T08:23:29;6.43;;;4.10;;
39620;SDS011;25309;48.686;9.170;2023-06-14T08:25:58;5.00;;;4.00;;
39620;SDS011;25309;48.686;9.170;2023-06-14T08:28:27;8.17;;;3.93;;
39620;SDS011;25309;48.686;9.170;2023-06-14T08:30:54;4.27;;;3.87;;
39620;SDS011;25309;48.686;9.170;2023-06-14T08:33:22;5.93;;;4.57;;
39620;SDS011;25309;48.686;9.170;2023-06-14T08:35:49;5.87;;;4.20;;
39620;SDS011;25309;48.686;9.170;2023-06-14T08:38:16;5.87;;;4.30;;
39620;SDS011;25309;48.686;9.170;2023-06-14T08:40:43;6.13;;;4.37;;
39620;SDS011;25309;48.686;9.170;2023-06-14T08:43:15;6.77;;;4.40;;
39620;SDS011;25309;48.686;9.170;2023-06-14T08:45:42;7.10;;;4.40;;
39620;SDS011;25309;48.686;9.170;2023-06-14T08:48:10;5.80;;;4.00;;
39620;SDS011;25309;48.686;9.170;2023-06-14T08:50:38;5.13;;;4.27;;
39620;SDS011;25309;48.686;9.170;2023-06-14T08:53:08;5.83;;;4.33;;
39620;SDS011;25309;48.686;9.170;2023-06-14T08:55:42;7.17;;;4.37;;
39620;SDS011;25309;48.686;9.170;2023-06-14T08:58:09;5.03;;;4.30;;
39620;SDS011;25309;48.686;9.170;2023-06-14T09:00:42;5.20;;;4.10;;
39620;SDS011;25309;48.686;9.170;2023-06-14T09:03:11;5.00;;;4.30;;
39620;SDS011;25309;48.686;9.170;2023-06-14T09:05:40;5.37;;;4.30;;
39620;SDS011;25309;48.686;9.170;2023-06-14T09:08:07;7.57;;;4.43;;
39620;SDS011;25309;48.686;9.170;2023-06-14T09:10:34;5.67;;;4.23;;
39620;SDS011;25309;48.686;9.170;2023-06-14T09:13:04;5.27;;;4.50;;
39620;SDS011;25309;48.686;9.170;2023-06-14T09:15:32;6.23;;;4.10;;
39620;SDS011;25309;48.686;9.170;2023-06-14T09:18:01;9.33;;;4.27;;
39620;SDS011;25309;48.686;9.170;2023-06-14T09:20:29;5.73;;;3.97;;
39620;SDS011;25309;48.686;9.170;2023-06-14T09:22:57;5.10;;;4.60;;
39620;SDS011;25309;48.686;9.170;2023-06-14T09:25:24;4.57;;;4.17;;
39620;SDS011;25309;48.686;9.170;2023-06-14T09:28:06;4.93;;;4.20;;
39620;SDS011;25309;48.686;9.170;2023-06-14T09:30:35;5.93;;;4.43;;
39620;SDS011;25309;48.686;9.170;2023-06-14T09:33:04;5.40;;;4.10;;
39620;SDS011;25309;48.686;9.170;2023-06-14T09:35:31;5.87;;;4.20;;
39620;SDS011;25309;48.686;9.170;2023-06-14T09:37:58;7.43;;;4.20;;
39620;SDS011;25309;48.686;9.170;2023-06-14T09:40:26;4.97;;;3.97;;
39620;SDS011;25309;48.686;9.170;2023-06-14T09:42:53;6.27;;;4.20;;
39620;SDS011;25309;48.686;9.170;2023-06-14T09:45:24;5.80;;;3.93;;
39620;SDS011;25309;48.686;9.170;2023-06-14T09:47:55;5.53;;;4.10;;
39620;SDS011;25309;48.686;9.170;2023-06-14T09:50:34;5.60;;;4.10;;
39620;SDS011;25309;48.686;9.170;2023-06-14T09:53:02;6.17;;;4.60;;
39620;SDS011;25309;48.686;9.170;2023-06-14T09:55:33;5.43;;;3.63;;
39620;SDS011;25309;48.686;9.170;2023-06-14T09:58:04;5.50;;;4.10;;
39620;SDS011;25309;48.686;9.170;2023-06-14T10:00:33;8.47;;;4.40;;
39620;SDS011;25309;48.686;9.170;2023-06-14T10:03:03;5.30;;;3.87;;
39620;SDS011;25309;48.686;9.170;2023-06-14T10:05:39;5.43;;;3.83;;
39620;SDS011;25309;48.686;9.170;2023-06-14T10:08:08;5.90;;;3.97;;
39620;SDS011;25309;48.686;9.170;2023-06-14T10:10:38;4.37;;;3.77;;
39620;SDS011;25309;48.686;9.170;2023-06-14T10:13:06;6.90;;;3.90;;
39620;SDS011;25309;48.686;9.170;2023-06-14T10:15:35;5.63;;;3.67;;
39620;SDS011;25309;48.686;9.170;2023-06-14T10:18:11;4.77;;;3.80;;
39620;SDS011;25309;48.686;9.170;2023-06-14T10:20:52;5.13;;;3.73;;
39620;SDS011;25309;48.686;9.170;2023-06-14T10:23:26;8.27;;;3.80;;
39620;SDS011;25309;48.686;9.170;2023-06-14T10:25:56;6.37;;;3.57;;
39620;SDS011;25309;48.686;9.170;2023-06-14T10:28:23;4.83;;;3.53;;
39620;SDS011;25309;48.686;9.170;2023-06-14T10:31:02;4.87;;;3.73;;
39620;SDS011;25309;48.686;9.170;2023-06-14T10:33:34;4.93;;;3.37;;
39620;SDS011;25309;48.686;9.170;2023-06-14T10:36:11;5.50;;;3.80;;
39620;SDS011;25309;48.686;9.170;2023-06-14T10:38:57;7.20;;;3.43;;
39620;SDS011;25309;48.686;9.170;2023-06-14T10:41:26;4.67;;;3.77;;
39620;SDS011;25309;48.686;9.170;2023-06-14T10:47:00;4.47;;;3.60;;
39620;SDS011;25309;48.686;9.170;2023-06-14T10:49:37;5.40;;;3.73;;
39620;SDS011;25309;48.686;9.170;2023-06-14T10:52:10;8.37;;;3.77;;
39620;SDS011;25309;48.686;9.170;2023-06-14T10:57:43;4.87;;;3.80;;
39620;SDS011;25309;48.686;9.170;2023-06-14T11:00:18;7.33;;;3.97;;
39620;SDS011;25309;48.686;9.170;2023-06-14T11:02:59;5.70;;;3.60;;
39620;SDS011;25309;48.686;9.170;2023-06-14T11:06:08;4.07;;;3.63;;
39620;SDS011;25309;48.686;9.170;2023-06-14T11:11:46;5.63;;;3.60;;
39620;SDS011;25309;48.686;9.170;2023-06-14T11:14:15;6.63;;;4.13;;
39620;SDS011;25309;48.686;9.170;2023-06-14T11:16:42;4.47;;;3.60;;
39620;SDS011;25309;48.686;9.170;2023-06-14T11:19:14;5.87;;;3.80;;
39620;SDS011;25309;48.686;9.170;2023-06-14T11:21:46;4.77;;;3.40;;
39620;SDS011;25309;48.686;9.170;2023-06-14T11:24:16;5.53;;;3.73;;
39620;SDS011;25309;48.686;9.170;2023-06-14T11:26:43;6.37;;;3.60;;
39620;SDS011;25309;48.686;9.170;2023-06-14T11:29:10;6.73;;;3.90;;
39620;SDS011;25309;48.686;9.170;2023-06-14T11:31:37;5.10;;;4.03;;
39620;SDS011;25309;48.686;9.170;2023-06-14T11:34:09;6.53;;;3.90;;
39620;SDS011;25309;48.686;9.170;2023-06-14T11:36:36;5.37;;;3.77;;
39620;SDS011;25309;48.686;9.170;2023-06-14T11:39:05;5.20;;;3.80;;
39620;SDS011;25309;48.686;9.170;2023-06-14T11:41:38;5.37;;;4.57;;
39620;SDS011;25309;48.686;9.170;2023-06-14T11:44:06;7.23;;;4.10;;
39620;SDS011;25309;48.686;9.170;2023-06-14T11:46:34;6.87;;;3.70;;
39620;SDS011;25309;48.686;9.170;2023-06-14T11:49:02;4.90;;;3.67;;
39620;SDS011;25309;48.686;9.170;2023-06-14T11:51:30;7.80;;;4.03;;
39620;SDS011;25309;48.686;9.170;2023-06-14T11:53:58;4.77;;;3.77;;
39620;SDS011;25309;48.686;9.170;2023-06-14T11:56:25;4.60;;;3.80;;
39620;SDS011;25309;48.686;9.170;2023-06-14T11:58:54;5.00;;;3.83;;
39620;SDS011;25309;48.686;9.170;2023-06-14T12:01:24;5.27;;;3.97;;
39620;SDS011;25309;48.686;9.170;2023-06-14T12:03:52;7.27;;;3.80;;
39620;SDS011;25309;48.686;9.170;2023-06-14T12:06:25;3.77;;;3.37;;
39620;SDS011;25309;48.686;9.170;2023-06-14T12:08:55;4.93;;;3.50;;
39620;SDS011;25309;48.686;9.170;2023-06-14T12:11:22;5.60;;;3.93;;
39620;SDS011;25309;48.686;9.170;2023-06-14T12:13:50;4.83;;;3.97;;
39620;SDS011;25309;48.686;9.170;2023-06-14T12:16:18;5.13;;;4.00;;
39620;SDS011;25309;48.686;9.170;2023-06-14T12:18:45;5.27;;;3.50;;
39620;SDS011;25309;48.686;9.170;2023-06-14T12:21:12;4.90;;;3.80;;
39620;SDS011;25309;48.686;9.170;2023-06-14T12:23:41;4.23;;;3.33;;
39620;SDS011;25309;48.686;9.170;2023-06-14T12:26:11;6.00;;;4.07;;
39620;SDS011;25309;48.686;9.170;2023-06-14T12:28:39;5.63;;;3.73;;
39620;SDS011;25309;48.686;9.170;2023-06-14T12:31:07;4.97;;;3.63;;
39620;SDS011;25309;48.686;9.170;2023-06-14T12:33:36;5.33;;;3.80;;
39620;SDS011;25309;48.686;9.170;2023-06-14T12:36:03;4.87;;;3.67;;
39620;SDS011;25309;48.686;9.170;2023-06-14T12:38:31;4.93;;;3.77;;
39620;SDS011;25309;48.686;9.170;2023-06-14T12:40:58;5.27;;;3.70;;
39620;SDS011;25309;48.686;9.170;2023-06-14T12:43:26;5.63;;;3.63;;
39620;SDS011;25309;48.686;9.170;2023-06-14T12:45:53;5.37;;;3.63;;
39620;SDS011;25309;48.686;9.170;2023-06-14T12:48:20;4.53;;;3.53;;
39620;SDS011;25309;48.686;9.170;2023-06-14T12:50:49;5.23;;;3.50;;
39620;SDS011;25309;48.686;9.170;2023-06-14T12:53:16;3.90;;;3.40;;
39620;SDS011;25309;48.686;9.170;2023-06-14T12:55:43;7.43;;;3.50;;
39620;SDS011;25309;48.686;9.170;2023-06-14T12:58:10;5.37;;;3.80;;
39620;SDS011;25309;48.686;9.170;2023-06-14T13:00:40;5.50;;;3.53;;
39620;SDS011;25309;48.686;9.170;2023-06-14T13:03:07;4.63;;;3.70;;
39620;SDS011;25309;48.686;9.170;2023-06-14T13:05:34;4.87;;;3.63;;
39620;SDS011;25309;48.686;9.170;2023-06-14T13:08:03;6.03;;;4.00;;
39620;SDS011;25309;48.686;9.170;2023-06-14T13:10:30;5.40;;;3.60;;
39620;SDS011;25309;48.686;9.170;2023-06-14T13:12:57;4.77;;;3.40;;
39620;SDS011;25309;48.686;9.170;2023-06-14T13:15:26;4.43;;;3.60;;
39620;SDS011;25309;48.686;9.170;2023-06-14T13:17:53;5.97;;;3.67;;
39620;SDS011;25309;48.686;9.170;2023-06-14T13:20:21;4.97;;;3.50;;
39620;SDS011;25309;48.686;9.170;2023-06-14T13:22:49;6.27;;;3.60;;
39620;SDS011;25309;48.686;9.170;2023-06-14T13:25:17;4.07;;;3.37;;
39620;SDS011;25309;48.686;9.170;2023-06-14T13:27:44;4.67;;;3.90;;
39620;SDS011;25309;48.686;9.170;2023-06-14T13:30:11;5.83;;;3.57;;
39620;SDS011;25309;48.686;9.170;2023-06-14T13:32:39;5.13;;;3.93;;
39620;SDS011;25309;48.686;9.170;2023-06-14T13:35:06;5.30;;;3.67;;
39620;SDS011;25309;48.686;9.170;2023-06-14T13:37:33;4.97;;;3.63;;
39620;SDS011;25309;48.686;9.170;2023-06-14T13:40:00;4.33;;;3.27;;
39620;SDS011;25309;48.686;9.170;2023-06-14T13:42:28;4.67;;;3.40;;
39620;SDS011;25309;48.686;9.170;2023-06-14T13:44:58;6.70;;;3.80;;
39620;SDS011;25309;48.686;9.170;2023-06-14T13:47:25;4.47;;;3.40;;
39620;SDS011;25309;48.686;9.170;2023-06-14T13:49:52;3.97;;;3.40;;
39620;SDS011;25309;48.686;9.170;2023-06-14T13:52:19;5.83;;;3.90;;
39620;SDS011;25309;48.686;9.170;2023-06-14T13:54:47;4.30;;;3.50;;
39620;SDS011;25309;48.686;9.170;2023-06-14T13:57:15;5.03;;;3.50;;
39620;SDS011;25309;48.686;9.170;2023-06-14T13:59:43;4.57;;;3.30;;
39620;SDS011;25309;48.686;9.170;2023-06-14T14:02:13;4.83;;;3.43;;
39620;SDS011;25309;48.686;9.170;2023-06-14T14:04:40;6.10;;;3.27;;
39620;SDS011;25309;48.686;9.170;2023-06-14T14:07:08;3.40;;;3.10;;
39620;SDS011;25309;48.686;9.170;2023-06-14T14:09:35;4.90;;;3.50;;
39620;SDS011;25309;48.686;9.170;2023-06-14T14:12:04;5.13;;;3.50;;
39620;SDS011;25309;48.686;9.170;2023-06-14T14:14:32;4.57;;;3.20;;
39620;SDS011;25309;48.686;9.170;2023-06-14T14:17:00;3.90;;;3.43;;
39620;SDS011;25309;48.686;9.170;2023-06-14T14:19:27;6.30;;;3.50;;
39620;SDS011;25309;48.686;9.170;2023-06-14T14:21:54;4.00;;;3.23;;
39620;SDS011;25309;48.686;9.170;2023-06-14T14:24:21;5.10;;;3.10;;
39620;SDS011;25309;48.686;9.170;2023-06-14T14:26:48;5.63;;;3.33;;
39620;SDS011;25309;48.686;9.170;2023-06-14T14:29:16;4.13;;;3.73;;
39620;SDS011;25309;48.686;9.170;2023-06-14T14:31:43;4.30;;;3.30;;
39620;SDS011;25309;48.686;9.170;2023-06-14T14:34:12;5.40;;;3.30;;
39620;SDS011;25309;48.686;9.170;2023-06-14T14:36:39;5.70;;;3.73;;
39620;SDS011;25309;48.686;9.170;2023-06-14T14:39:09;4.17;;;3.40;;
39620;SDS011;25309;48.686;9.170;2023-06-14T14:41:36;5.93;;;3.80;;
39620;SDS011;25309;48.686;9.170;2023-06-14T14:44:07;5.43;;;3.63;;
39620;SDS011;25309;48.686;9.170;2023-06-14T14:46:34;4.40;;;3.60;;
39620;SDS011;25309;48.686;9.170;2023-06-14T14:49:02;5.50;;;3.30;;
39620;SDS011;25309;48.686;9.170;2023-06-14T14:51:30;4.47;;;3.40;;
39620;SDS011;25309;48.686;9.170;2023-06-14T14:53:57;5.17;;;3.80;;
39620;SDS011;25309;48.686;9.170;2023-06-14T14:56:24;5.07;;;3.53;;
39620;SDS011;25309;48.686;9.170;2023-06-14T14:58:52;3.60;;;3.30;;
39620;SDS011;25309;48.686;9.170;2023-06-14T15:01:19;4.60;;;3.50;;
39620;SDS011;25309;48.686;9.170;2023-06-14T15:03:46;4.47;;;3.63;;
39620;SDS011;25309;48.686;9.170;2023-06-14T15:06:16;4.30;;;3.40;;